createdAt,value
2019-02-28T00:00:37.181Z,4.00
2019-02-28T00:03:09.461Z,4.00
2019-02-28T00:05:40.719Z,4.00
2019-02-28T00:08:12.049Z,4.00
2019-02-28T00:10:43.392Z,4.00
2019-02-28T00:16:41.374Z,4.00
2019-02-28T00:19:26.329Z,4.00
2019-02-28T00:21:58.983Z,4.00
2019-02-28T00:24:30.767Z,4.00
2019-02-28T00:27:02.278Z,4.00
2019-02-28T00:29:34.345Z,3.90
2019-02-28T00:32:06.462Z,3.90
2019-02-28T00:34:39.221Z,3.80
2019-02-28T00:37:24.599Z,3.80
2019-02-28T00:39:54.239Z,3.70
2019-02-28T00:42:25.570Z,3.70
2019-02-28T00:44:58.138Z,3.70
2019-02-28T00:47:29.111Z,3.70
2019-02-28T00:50:00.648Z,3.60
2019-02-28T00:52:32.077Z,3.70
2019-02-28T00:55:05.437Z,3.60
2019-02-28T00:57:36.817Z,3.60
2019-02-28T01:00:08.597Z,3.60
2019-02-28T01:02:41.570Z,3.60
2019-02-28T01:05:24.451Z,3.60
2019-02-28T01:07:56.154Z,3.60
2019-02-28T01:10:27.862Z,3.60
2019-02-28T01:12:59.228Z,3.60
2019-02-28T01:15:30.703Z,3.60
2019-02-28T01:18:13.298Z,3.60
2019-02-28T01:20:50.046Z,3.60
2019-02-28T01:23:18.201Z,3.60
2019-02-28T01:25:49.369Z,3.60
2019-02-28T01:28:23.396Z,3.60
2019-02-28T01:30:53.608Z,3.60
2019-02-28T01:33:25.639Z,3.60
2019-02-28T01:35:57.122Z,3.60
2019-02-28T01:38:28.272Z,3.60
2019-02-28T01:40:59.472Z,3.50
2019-02-28T01:43:30.642Z,3.50
2019-02-28T01:46:01.826Z,3.50
2019-02-28T01:48:33.109Z,3.40
2019-02-28T01:51:04.295Z,3.40
2019-02-28T01:53:35.503Z,3.50
2019-02-28T01:56:18.232Z,3.40
2019-02-28T01:58:50.576Z,3.40
2019-02-28T02:01:33.480Z,3.40
2019-02-28T02:04:04.935Z,3.40
2019-02-28T02:06:37.358Z,3.40
2019-02-28T02:09:10.989Z,3.40
2019-02-28T02:11:41.927Z,3.40
2019-02-28T02:14:13.325Z,3.30
2019-02-28T02:16:44.608Z,3.30
2019-02-28T02:19:18.593Z,3.30
2019-02-28T02:21:49.119Z,3.30
2019-02-28T02:24:20.414Z,3.30
2019-02-28T02:26:52.028Z,3.30
2019-02-28T02:29:23.452Z,3.30
2019-02-28T02:31:54.751Z,3.30
2019-02-28T02:34:28.265Z,3.30
2019-02-28T02:36:59.324Z,3.30
2019-02-28T02:39:30.450Z,3.30
2019-02-28T02:42:02.009Z,3.30
2019-02-28T02:44:33.086Z,3.20
2019-02-28T02:47:04.910Z,3.30
2019-02-28T02:49:36.988Z,3.30
2019-02-28T02:52:08.390Z,3.20
2019-02-28T02:54:40.171Z,3.30
2019-02-28T02:57:14.060Z,3.30
2019-02-28T02:59:44.270Z,3.30
2019-02-28T03:02:15.771Z,3.30
2019-02-28T03:04:46.975Z,3.30
2019-02-28T03:07:24.655Z,3.30
2019-02-28T03:09:52.279Z,3.40
2019-02-28T03:12:23.631Z,3.40
2019-02-28T03:14:54.649Z,3.30
2019-02-28T03:17:26.072Z,3.30
2019-02-28T03:19:58.196Z,3.30
2019-02-28T03:22:30.371Z,3.30
2019-02-28T03:25:01.752Z,3.30
2019-02-28T03:27:33.453Z,3.30
2019-02-28T03:30:04.991Z,3.30
2019-02-28T03:32:42.005Z,3.30
2019-02-28T03:35:09.679Z,3.30
2019-02-28T03:37:41.147Z,3.30
2019-02-28T03:40:12.674Z,3.30
2019-02-28T03:42:44.291Z,3.30
2019-02-28T03:45:16.070Z,3.30
2019-02-28T03:47:47.561Z,3.40
2019-02-28T03:50:21.992Z,3.40
2019-02-28T03:52:53.109Z,3.30
2019-02-28T03:55:24.580Z,3.40
2019-02-28T03:58:03.703Z,3.40
2019-02-28T04:00:34.000Z,3.40
2019-02-28T04:03:03.121Z,3.40
2019-02-28T04:05:34.472Z,3.40
2019-02-28T04:08:06.012Z,3.40
2019-02-28T04:10:37.516Z,3.40
2019-02-28T04:13:08.933Z,3.40
2019-02-28T04:15:49.810Z,3.30
2019-02-28T04:18:13.462Z,3.30
2019-02-28T04:20:44.860Z,3.30
2019-02-28T04:23:16.422Z,3.40
2019-02-28T04:25:47.864Z,3.40
2019-02-28T04:28:19.231Z,3.40
2019-02-28T04:30:50.331Z,3.40
2019-02-28T04:33:21.938Z,3.40
2019-02-28T04:35:53.359Z,3.40
2019-02-28T04:38:24.749Z,3.50
2019-02-28T04:40:58.874Z,3.50
2019-02-28T04:43:29.077Z,3.50
2019-02-28T04:46:00.662Z,3.50
2019-02-28T04:48:31.987Z,3.50
2019-02-28T04:51:05.801Z,3.50
2019-02-28T04:53:36.484Z,3.50
2019-02-28T04:56:18.605Z,3.50
2019-02-28T04:58:51.699Z,3.50
2019-02-28T05:01:24.617Z,3.50
2019-02-28T05:03:56.157Z,3.60
2019-02-28T05:06:27.456Z,3.60
2019-02-28T05:08:58.716Z,3.60
2019-02-28T05:11:30.663Z,3.60
2019-02-28T05:14:02.907Z,3.70
2019-02-28T05:16:34.335Z,3.70
2019-02-28T05:19:05.838Z,3.80
2019-02-28T05:21:37.633Z,3.80
2019-02-28T05:24:09.291Z,3.90
2019-02-28T05:26:41.293Z,3.90
2019-02-28T05:29:13.047Z,3.90
2019-02-28T05:31:45.960Z,4.00
2019-02-28T05:34:17.637Z,4.00
2019-02-28T05:36:48.822Z,4.10
2019-02-28T05:39:20.305Z,4.10
2019-02-28T05:41:52.030Z,4.10
2019-02-28T05:44:23.892Z,4.20
2019-02-28T05:46:57.804Z,4.20
2019-02-28T05:49:28.094Z,4.20
2019-02-28T05:51:59.879Z,4.20
2019-02-28T05:54:31.152Z,4.20
2019-02-28T05:57:04.720Z,4.30
2019-02-28T05:59:35.680Z,4.30
2019-02-28T06:02:07.199Z,4.40
2019-02-28T06:04:38.793Z,4.40
2019-02-28T06:07:10.400Z,4.50
2019-02-28T06:09:41.551Z,4.50
2019-02-28T06:12:12.825Z,4.60
2019-02-28T06:14:43.982Z,4.60
2019-02-28T06:17:17.355Z,4.70
2019-02-28T06:19:49.064Z,4.70
2019-02-28T06:22:20.373Z,4.70
2019-02-28T06:24:51.644Z,4.70
2019-02-28T06:27:24.310Z,4.70
2019-02-28T06:29:55.786Z,4.70
2019-02-28T06:32:27.440Z,4.70
2019-02-28T06:34:59.848Z,4.80
2019-02-28T06:37:31.867Z,4.80
2019-02-28T06:40:03.119Z,4.90
2019-02-28T06:42:34.586Z,4.80
2019-02-28T06:45:06.456Z,4.90
2019-02-28T06:47:39.015Z,4.90
2019-02-28T06:50:13.002Z,5.00
2019-02-28T06:52:44.596Z,5.00
2019-02-28T06:55:20.660Z,5.00
2019-02-28T06:57:51.945Z,5.10
2019-02-28T07:00:24.747Z,5.10
2019-02-28T07:02:56.263Z,5.10
2019-02-28T07:05:27.681Z,5.20
2019-02-28T07:08:00.575Z,5.30
2019-02-28T07:10:31.743Z,5.30
2019-02-28T07:13:12.367Z,5.30
2019-02-28T07:15:43.685Z,5.30
2019-02-28T07:18:14.771Z,5.30
2019-02-28T07:20:47.268Z,5.40
2019-02-28T07:23:18.847Z,5.40
2019-02-28T07:25:49.991Z,5.50
2019-02-28T07:28:21.322Z,5.50
2019-02-28T07:30:53.579Z,5.40
2019-02-28T07:33:24.944Z,5.50
2019-02-28T07:38:39.829Z,5.60
2019-02-28T07:41:11.233Z,5.70
2019-02-28T07:43:45.864Z,5.60
2019-02-28T07:46:15.551Z,5.80
2019-02-28T07:48:47.013Z,5.90
2019-02-28T07:51:29.312Z,5.90
2019-02-28T07:54:01.751Z,6.10
2019-02-28T07:56:34.164Z,6.10
2019-02-28T07:59:06.373Z,6.10
2019-02-28T08:01:37.853Z,6.00
2019-02-28T08:04:09.475Z,5.90
2019-02-28T08:06:40.852Z,6.00
2019-02-28T08:09:24.647Z,6.00
2019-02-28T08:11:56.713Z,5.90
2019-02-28T08:14:29.172Z,6.00
2019-02-28T08:17:00.757Z,5.90
2019-02-28T08:19:33.291Z,5.90
2019-02-28T08:22:05.058Z,6.00
2019-02-28T08:24:36.690Z,6.00
2019-02-28T08:27:08.081Z,6.20
2019-02-28T08:29:44.744Z,6.40
2019-02-28T08:32:12.910Z,6.30
2019-02-28T08:34:46.653Z,6.40
2019-02-28T08:37:19.039Z,6.40
2019-02-28T08:39:51.426Z,6.60
2019-02-28T08:42:22.850Z,6.70
2019-02-28T08:44:58.978Z,7.00
2019-02-28T08:47:28.184Z,7.10
2019-02-28T08:49:59.528Z,7.20
2019-02-28T08:52:31.015Z,7.20
2019-02-28T08:55:02.913Z,7.30
2019-02-28T08:57:35.611Z,7.60
2019-02-28T09:00:08.793Z,7.70
2019-02-28T09:02:41.693Z,8.00
2019-02-28T09:05:13.867Z,7.70
2019-02-28T09:07:50.946Z,7.60
2019-02-28T09:10:19.976Z,7.70
2019-02-28T09:12:51.555Z,7.80
2019-02-28T09:15:22.904Z,7.70
2019-02-28T09:17:58.251Z,7.90
2019-02-28T09:20:27.870Z,8.20
2019-02-28T09:23:02.120Z,8.30
2019-02-28T09:25:33.250Z,8.20
2019-02-28T09:28:04.698Z,8.30
2019-02-28T09:30:38.799Z,8.20
2019-02-28T09:33:10.861Z,8.30
2019-02-28T09:35:45.533Z,8.30
2019-02-28T09:38:15.271Z,8.20
2019-02-28T09:40:46.508Z,8.30
2019-02-28T09:43:17.833Z,8.20
2019-02-28T09:45:49.151Z,8.10
2019-02-28T09:48:20.550Z,8.20
2019-02-28T09:50:57.738Z,8.00
2019-02-28T09:53:24.696Z,8.20
2019-02-28T09:55:55.876Z,8.00
2019-02-28T09:58:29.342Z,8.20
2019-02-28T10:01:00.471Z,8.20
2019-02-28T10:03:31.902Z,8.30
2019-02-28T10:06:02.977Z,8.10
2019-02-28T10:08:36.776Z,7.90
2019-02-28T10:11:07.357Z,8.00
2019-02-28T10:13:38.556Z,8.10
2019-02-28T10:16:09.946Z,7.80
2019-02-28T10:18:41.129Z,7.90
2019-02-28T10:21:12.499Z,8.00
2019-02-28T10:23:43.695Z,8.10
2019-02-28T10:26:17.222Z,8.10
2019-02-28T10:28:48.137Z,7.90
2019-02-28T10:31:22.872Z,7.80
2019-02-28T10:33:53.937Z,8.10
2019-02-28T10:36:25.172Z,8.20
2019-02-28T10:38:56.372Z,8.30
2019-02-28T10:41:31.180Z,8.30
2019-02-28T10:44:01.556Z,8.50
2019-02-28T10:46:36.047Z,8.80
2019-02-28T10:49:07.367Z,8.90
2019-02-28T10:51:38.856Z,8.60
2019-02-28T10:54:11.279Z,8.60
2019-02-28T10:56:43.570Z,8.50
2019-02-28T10:59:14.847Z,8.60
2019-02-28T11:01:46.750Z,8.70
2019-02-28T11:04:18.915Z,8.50
2019-02-28T11:06:50.397Z,8.30
2019-02-28T11:09:25.208Z,8.30
2019-02-28T11:12:19.638Z,8.40
2019-02-28T11:14:46.993Z,8.40
2019-02-28T11:17:19.749Z,8.50
2019-02-28T11:19:51.969Z,8.60
2019-02-28T11:22:23.999Z,8.70
2019-02-28T11:25:00.485Z,8.60
2019-02-28T11:27:29.808Z,8.60
2019-02-28T11:30:01.132Z,8.80
2019-02-28T11:32:32.834Z,8.70
2019-02-28T11:35:04.256Z,9.10
2019-02-28T11:37:35.761Z,9.30
2019-02-28T11:40:08.472Z,9.30
2019-02-28T11:42:40.705Z,9.10
2019-02-28T11:45:18.545Z,9.30
2019-02-28T11:47:50.756Z,9.20
2019-02-28T11:50:22.120Z,8.90
2019-02-28T11:52:53.456Z,9.10
2019-02-28T11:55:27.044Z,8.90
2019-02-28T11:57:57.911Z,8.90
2019-02-28T12:00:32.526Z,9.20
2019-02-28T12:03:05.445Z,9.30
2019-02-28T12:05:36.827Z,9.30
2019-02-28T12:08:10.300Z,9.20
2019-02-28T12:10:41.365Z,9.30
2019-02-28T12:13:12.709Z,9.70
2019-02-28T12:15:44.139Z,9.80
2019-02-28T12:18:15.810Z,10.00
2019-02-28T12:20:47.205Z,10.40
2019-02-28T12:23:24.648Z,10.60
2019-02-28T12:25:58.236Z,10.40
2019-02-28T12:28:29.776Z,10.60
2019-02-28T12:31:01.207Z,10.80
2019-02-28T12:33:32.459Z,10.40
2019-02-28T12:36:03.859Z,10.80
2019-02-28T12:38:36.409Z,11.10
2019-02-28T12:41:07.790Z,11.20
2019-02-28T12:43:40.580Z,11.20
2019-02-28T12:49:21.735Z,11.30
2019-02-28T12:51:51.583Z,10.80
2019-02-28T12:54:23.583Z,11.10
2019-02-28T12:56:55.118Z,11.00
2019-02-28T12:59:27.139Z,10.40
2019-02-28T13:01:58.980Z,10.10
2019-02-28T13:04:32.518Z,10.10
2019-02-28T13:07:15.498Z,10.50
2019-02-28T13:09:48.265Z,10.90
2019-02-28T13:12:21.355Z,10.50
2019-02-28T13:14:54.703Z,10.20
2019-02-28T13:17:28.314Z,10.00
2019-02-28T13:19:59.529Z,9.80
2019-02-28T13:22:31.433Z,10.10
2019-02-28T13:25:03.185Z,10.10
2019-02-28T13:27:34.917Z,10.40
2019-02-28T13:30:10.537Z,10.10
2019-02-28T13:32:41.261Z,10.00
2019-02-28T13:35:15.042Z,9.90
2019-02-28T13:37:46.955Z,10.00
2019-02-28T13:40:19.042Z,9.90
2019-02-28T13:42:51.069Z,9.90
2019-02-28T13:45:23.837Z,10.10
2019-02-28T13:47:56.022Z,10.20
2019-02-28T13:50:28.272Z,10.10
2019-02-28T13:53:02.554Z,10.00
2019-02-28T13:55:33.475Z,10.00
2019-02-28T13:58:05.614Z,10.00
2019-02-28T14:00:43.616Z,10.30
2019-02-28T14:03:10.870Z,10.40
2019-02-28T14:05:42.551Z,10.40
2019-02-28T14:08:14.487Z,10.20
2019-02-28T14:10:46.002Z,10.30
2019-02-28T14:13:17.736Z,10.30
2019-02-28T14:15:52.506Z,10.10
2019-02-28T14:18:23.297Z,10.00
2019-02-28T14:20:59.505Z,9.90
2019-02-28T14:23:29.727Z,10.00
2019-02-28T14:26:03.538Z,9.90
2019-02-28T14:35:22.737Z,10.40
2019-02-28T14:37:56.914Z,10.10
2019-02-28T14:40:28.998Z,10.10
2019-02-28T14:43:01.276Z,9.80
2019-02-28T14:45:33.133Z,9.90
2019-02-28T14:48:05.193Z,9.90
2019-02-28T14:50:40.053Z,9.70
2019-02-28T14:53:14.412Z,9.40
2019-02-28T14:55:44.924Z,9.40
2019-02-28T14:58:16.557Z,9.30
2019-02-28T15:00:48.093Z,9.10
2019-02-28T15:03:20.979Z,9.10
2019-02-28T15:05:55.409Z,9.10
2019-02-28T15:08:31.574Z,8.90
2019-02-28T15:11:03.210Z,8.90
2019-02-28T15:13:35.124Z,8.80
2019-02-28T15:16:06.795Z,8.70
2019-02-28T15:19:15.482Z,8.70
2019-02-28T15:21:51.262Z,8.60
2019-02-28T15:24:31.134Z,8.60
2019-02-28T15:27:11.631Z,8.50
2019-02-28T15:29:58.904Z,8.40
2019-02-28T15:32:45.145Z,8.40
2019-02-28T15:35:27.602Z,8.30
2019-02-28T15:38:05.801Z,8.30
2019-02-28T15:40:41.898Z,8.30
2019-02-28T15:43:18.162Z,8.20
2019-02-28T15:45:48.922Z,8.10
2019-02-28T15:48:20.783Z,8.00
2019-02-28T15:50:52.751Z,8.00
2019-02-28T15:53:24.537Z,8.10
2019-02-28T15:56:19.513Z,8.00
2019-02-28T15:58:48.318Z,8.10
2019-02-28T16:01:20.366Z,8.00
2019-02-28T16:03:52.551Z,8.00
2019-02-28T16:06:24.359Z,7.90
2019-02-28T16:08:56.386Z,7.80
2019-02-28T16:11:28.385Z,7.80
2019-02-28T16:14:00.460Z,7.90
2019-02-28T16:16:34.957Z,7.70
2019-02-28T16:19:07.061Z,7.70
2019-02-28T16:21:40.786Z,7.60
2019-02-28T16:24:11.700Z,7.60
2019-02-28T16:26:43.319Z,7.60
2019-02-28T16:29:20.375Z,7.50
2019-02-28T16:31:48.336Z,7.30
2019-02-28T16:34:19.984Z,7.20
2019-02-28T16:36:51.769Z,7.10
2019-02-28T16:39:23.499Z,7.10
2019-02-28T16:41:55.114Z,7.20
2019-02-28T16:44:27.642Z,7.10
2019-02-28T16:46:59.915Z,7.10
2019-02-28T16:49:31.539Z,7.10
2019-02-28T16:52:05.969Z,7.00
2019-02-28T16:54:47.897Z,7.10
2019-02-28T16:57:19.785Z,7.20
2019-02-28T16:59:51.251Z,7.10
2019-02-28T17:02:22.903Z,7.10
2019-02-28T17:04:54.604Z,7.00
2019-02-28T17:07:26.274Z,6.90
2019-02-28T17:09:57.872Z,6.90
2019-02-28T17:12:59.607Z,6.90
2019-02-28T17:15:48.162Z,6.90
2019-02-28T17:18:22.293Z,6.70
2019-02-28T17:20:55.253Z,6.60
2019-02-28T17:23:27.734Z,6.50
2019-02-28T17:25:59.497Z,6.40
2019-02-28T17:28:49.607Z,6.20
2019-02-28T17:31:52.365Z,6.20
2019-02-28T17:34:26.367Z,6.10
2019-02-28T17:37:06.823Z,6.10
2019-02-28T17:39:38.616Z,6.00
2019-02-28T17:42:14.800Z,6.00
2019-02-28T17:45:15.592Z,6.10
2019-02-28T17:48:34.712Z,6.20
2019-02-28T17:51:41.820Z,6.20
2019-02-28T17:54:26.078Z,6.20
2019-02-28T17:57:26.738Z,6.20
2019-02-28T18:00:31.687Z,6.20
2019-02-28T18:03:57.022Z,6.30
2019-02-28T18:07:12.720Z,6.20
2019-02-28T18:10:30.498Z,6.20
2019-02-28T18:13:46.174Z,6.10
2019-02-28T18:16:54.665Z,6.10
2019-02-28T18:20:02.812Z,6.20
2019-02-28T18:22:53.693Z,6.50
2019-02-28T18:26:06.302Z,6.50
2019-02-28T18:29:14.941Z,6.30
2019-02-28T18:31:47.062Z,6.10
2019-02-28T18:34:30.130Z,6.00
2019-02-28T18:37:01.862Z,6.00
2019-02-28T18:39:33.839Z,6.20
2019-02-28T18:42:05.692Z,6.20
2019-02-28T18:44:40.763Z,6.00
2019-02-28T18:47:11.052Z,6.00
2019-02-28T18:49:42.597Z,6.20
2019-02-28T18:52:14.239Z,6.40
2019-02-28T18:54:46.938Z,6.40
2019-02-28T18:57:34.111Z,6.30
2019-02-28T19:00:08.541Z,6.30
2019-02-28T19:02:40.089Z,6.20
2019-02-28T19:05:12.786Z,6.20
2019-02-28T19:07:45.557Z,6.20
2019-02-28T19:10:18.679Z,6.10
2019-02-28T19:12:56.273Z,6.10
2019-02-28T19:15:28.120Z,6.20
2019-02-28T19:18:01.045Z,6.10
2019-02-28T19:20:32.686Z,6.00
2019-02-28T19:23:04.524Z,6.00
2019-02-28T19:25:35.986Z,5.90
2019-02-28T19:28:07.511Z,5.80
2019-02-28T19:30:39.143Z,5.80
2019-02-28T19:33:10.834Z,5.80
2019-02-28T19:35:42.626Z,5.80
2019-02-28T19:38:14.342Z,5.70
2019-02-28T19:40:46.189Z,5.50
2019-02-28T19:43:17.793Z,5.40
2019-02-28T19:45:49.670Z,5.30
2019-02-28T19:48:21.435Z,5.30
2019-02-28T19:50:53.091Z,5.40
2019-02-28T19:53:24.751Z,5.20
2019-02-28T19:55:56.861Z,5.20
2019-02-28T19:58:28.743Z,5.00
2019-02-28T20:01:00.592Z,5.10
2019-02-28T20:03:33.598Z,5.40
2019-02-28T20:06:05.537Z,5.10
2019-02-28T20:08:37.290Z,5.00
2019-02-28T20:11:09.424Z,5.20
2019-02-28T20:13:41.408Z,5.10
2019-02-28T20:16:13.242Z,4.80
2019-02-28T20:18:44.907Z,4.90
2019-02-28T20:21:17.386Z,4.80
2019-02-28T20:23:49.343Z,4.70
2019-02-28T20:26:21.027Z,4.50
2019-02-28T20:28:52.599Z,4.60
2019-02-28T20:31:24.453Z,4.60
2019-02-28T20:33:56.142Z,4.60
2019-02-28T20:36:27.684Z,4.50
2019-02-28T20:39:18.169Z,4.30
2019-02-28T20:41:50.403Z,4.30
2019-02-28T20:44:22.109Z,4.20
2019-02-28T20:46:55.095Z,4.30
2019-02-28T20:49:26.947Z,4.30
2019-02-28T20:51:58.772Z,4.40
2019-02-28T20:54:30.686Z,4.50
2019-02-28T20:57:02.521Z,4.40
2019-02-28T20:59:35.601Z,4.40
2019-02-28T21:02:07.232Z,4.20
2019-02-28T21:04:40.192Z,4.50
2019-02-28T21:07:12.887Z,4.30
2019-02-28T21:09:45.836Z,4.30
2019-02-28T21:12:17.446Z,4.10
2019-02-28T21:14:49.121Z,3.90
2019-02-28T21:17:29.220Z,4.00
2019-02-28T21:19:53.915Z,4.10
2019-02-28T21:22:25.731Z,4.10
2019-02-28T21:24:57.433Z,4.10
2019-02-28T21:27:30.281Z,4.20
2019-02-28T21:30:02.220Z,4.10
2019-02-28T21:32:35.279Z,3.90
2019-02-28T21:35:07.443Z,3.70
2019-02-28T21:37:40.612Z,3.60
2019-02-28T21:40:13.076Z,3.50
2019-02-28T21:42:44.719Z,3.40
2019-02-28T21:45:18.618Z,3.20
2019-02-28T21:47:50.453Z,3.00
2019-02-28T21:50:22.284Z,3.10
2019-02-28T21:52:54.071Z,3.30
2019-02-28T21:55:25.780Z,3.10
2019-02-28T21:57:57.658Z,3.00
2019-02-28T22:00:29.660Z,2.80
2019-02-28T22:03:01.513Z,2.80
2019-02-28T22:05:33.266Z,2.70
2019-02-28T22:08:05.440Z,2.90
2019-02-28T22:10:37.811Z,3.30
2019-02-28T22:13:09.530Z,3.30
2019-02-28T22:15:40.961Z,3.10
2019-02-28T22:18:12.578Z,3.00
2019-02-28T22:20:44.110Z,2.80
2019-02-28T22:23:15.683Z,2.80
2019-02-28T22:25:48.149Z,2.70
2019-02-28T22:28:19.756Z,2.60
2019-02-28T22:31:09.959Z,2.60
2019-02-28T22:33:48.147Z,2.60
2019-02-28T22:36:27.135Z,2.60
2019-02-28T22:38:58.731Z,2.60
2019-02-28T22:41:31.349Z,2.60
2019-02-28T22:44:03.020Z,2.50
2019-02-28T22:46:34.726Z,2.50
2019-02-28T22:49:06.269Z,2.60
2019-02-28T22:51:38.148Z,2.50
2019-02-28T22:54:09.824Z,2.50
2019-02-28T22:56:41.416Z,2.90
2019-02-28T22:59:12.962Z,3.00
2019-02-28T23:01:44.878Z,2.80
2019-02-28T23:04:16.654Z,2.80
2019-02-28T23:06:48.325Z,3.00
2019-02-28T23:09:20.105Z,3.10
2019-02-28T23:11:51.695Z,3.00
2019-02-28T23:14:23.472Z,2.90
2019-02-28T23:16:56.115Z,3.00
2019-02-28T23:19:27.851Z,3.10
2019-02-28T23:22:00.314Z,3.00
2019-02-28T23:24:32.021Z,2.80
2019-02-28T23:27:15.752Z,2.70
2019-02-28T23:30:12.687Z,2.70
2019-02-28T23:33:06.069Z,2.60
2019-02-28T23:35:40.906Z,2.50
2019-02-28T23:38:12.813Z,2.30
2019-02-28T23:40:44.496Z,2.40
2019-02-28T23:43:15.845Z,2.40
2019-02-28T23:45:47.352Z,2.30
2019-02-28T23:48:19.800Z,2.20
2019-02-28T23:50:52.535Z,2.20
2019-02-28T23:53:25.637Z,2.20
2019-02-28T23:55:57.390Z,2.20
2019-02-28T23:58:29.218Z,2.10
